sensor_id;sensor_type;location;lat;lon;timestamp;temperature;humidity
30174;DHT22;16985;50.814;8.530;2023-02-12T00:02:24;5.70;99.90
30174;DHT22;16985;50.814;8.530;2023-02-12T00:04:52;5.80;99.90
30174;DHT22;16985;50.814;8.530;2023-02-12T00:07:18;5.70;99.90
30174;DHT22;16985;50.814;8.530;2023-02-12T00:09:43;5.70;99.90
30174;DHT22;16985;50.814;8.530;2023-02-12T00:12:09;4.80;99.90
30174;DHT22;16985;50.814;8.530;2023-02-12T00:14:38;5.70;99.90
30174;DHT22;16985;50.814;8.530;2023-02-12T00:17:06;5.70;99.90
30174;DHT22;16985;50.814;8.530;2023-02-12T00:19:37;5.70;99.90
30174;DHT22;16985;50.814;8.530;2023-02-12T00:22:03;5.70;99.90
30174;DHT22;16985;50.814;8.530;2023-02-12T00:24:29;5.70;99.90
30174;DHT22;16985;50.814;8.530;2023-02-12T00:26:55;5.80;99.90
30174;DHT22;16985;50.814;8.530;2023-02-12T00:29:20;5.70;99.90
30174;DHT22;16985;50.814;8.530;2023-02-12T00:31:46;5.80;99.90
30174;DHT22;16985;50.814;8.530;2023-02-12T00:34:12;5.70;99.90
30174;DHT22;16985;50.814;8.530;2023-02-12T00:36:39;5.20;99.90
30174;DHT22;16985;50.814;8.530;2023-02-12T00:39:05;5.70;99.90
30174;DHT22;16985;50.814;8.530;2023-02-12T00:41:31;5.70;99.90
30174;DHT22;16985;50.814;8.530;2023-02-12T00:43:57;5.70;99.90
30174;DHT22;16985;50.814;8.530;2023-02-12T00:46:23;5.70;99.90
30174;DHT22;16985;50.814;8.530;2023-02-12T00:48:48;5.70;99.90
30174;DHT22;16985;50.814;8.530;2023-02-12T00:51:17;5.70;99.90
30174;DHT22;16985;50.814;8.530;2023-02-12T00:53:43;5.70;99.90
30174;DHT22;16985;50.814;8.530;2023-02-12T00:56:09;5.70;99.90
30174;DHT22;16985;50.814;8.530;2023-02-12T00:58:35;5.70;99.90
30174;DHT22;16985;50.814;8.530;2023-02-12T01:01:01;5.70;99.90
30174;DHT22;16985;50.814;8.530;2023-02-12T01:03:26;5.70;99.90
30174;DHT22;16985;50.814;8.530;2023-02-12T01:05:52;5.70;99.90
30174;DHT22;16985;50.814;8.530;2023-02-12T01:10:54;5.60;99.90
30174;DHT22;16985;50.814;8.530;2023-02-12T01:13:21;5.60;99.90
30174;DHT22;16985;50.814;8.530;2023-02-12T01:15:48;5.60;99.90
30174;DHT22;16985;50.814;8.530;2023-02-12T01:18:16;5.50;99.90
30174;DHT22;16985;50.814;8.530;2023-02-12T01:20:42;5.60;99.90
30174;DHT22;16985;50.814;8.530;2023-02-12T01:23:08;5.60;99.90
30174;DHT22;16985;50.814;8.530;2023-02-12T01:25:33;5.60;99.90
30174;DHT22;16985;50.814;8.530;2023-02-12T01:27:59;5.70;99.90
30174;DHT22;16985;50.814;8.530;2023-02-12T01:30:25;5.70;99.90
30174;DHT22;16985;50.814;8.530;2023-02-12T01:32:51;5.70;99.90
30174;DHT22;16985;50.814;8.530;2023-02-12T01:35:17;5.80;99.90
30174;DHT22;16985;50.814;8.530;2023-02-12T01:37:43;5.60;99.90
30174;DHT22;16985;50.814;8.530;2023-02-12T01:40:11;5.60;99.90
30174;DHT22;16985;50.814;8.530;2023-02-12T01:42:40;5.60;99.90
30174;DHT22;16985;50.814;8.530;2023-02-12T01:47:39;5.60;99.90
30174;DHT22;16985;50.814;8.530;2023-02-12T01:50:16;5.60;99.90
30174;DHT22;16985;50.814;8.530;2023-02-12T01:52:47;5.60;99.90
30174;DHT22;16985;50.814;8.530;2023-02-12T01:55:15;5.60;99.90
30174;DHT22;16985;50.814;8.530;2023-02-12T01:57:42;5.60;99.90
30174;DHT22;16985;50.814;8.530;2023-02-12T02:00:11;5.60;99.90
30174;DHT22;16985;50.814;8.530;2023-02-12T02:02:44;5.60;99.90
30174;DHT22;16985;50.814;8.530;2023-02-12T02:05:17;5.60;99.90
30174;DHT22;16985;50.814;8.530;2023-02-12T02:07:49;5.60;99.90
30174;DHT22;16985;50.814;8.530;2023-02-12T02:10:15;3.90;99.90
30174;DHT22;16985;50.814;8.530;2023-02-12T02:15:30;5.60;99.90
30174;DHT22;16985;50.814;8.530;2023-02-12T02:18:26;5.60;99.90
30174;DHT22;16985;50.814;8.530;2023-02-12T02:24:50;5.60;99.90
30174;DHT22;16985;50.814;8.530;2023-02-12T02:33:31;5.60;99.90
30174;DHT22;16985;50.814;8.530;2023-02-12T02:39:35;5.60;99.90
30174;DHT22;16985;50.814;8.530;2023-02-12T02:47:29;5.60;99.90
30174;DHT22;16985;50.814;8.530;2023-02-12T02:50:09;4.90;99.90
30174;DHT22;16985;50.814;8.530;2023-02-12T02:52:48;5.60;99.90
30174;DHT22;16985;50.814;8.530;2023-02-12T02:55:18;5.60;99.90
30174;DHT22;16985;50.814;8.530;2023-02-12T02:57:53;5.60;99.90
30174;DHT22;16985;50.814;8.530;2023-02-12T03:03:29;5.60;99.90
30174;DHT22;16985;50.814;8.530;2023-02-12T03:05:59;5.60;99.90
30174;DHT22;16985;50.814;8.530;2023-02-12T03:08:33;5.60;99.90
30174;DHT22;16985;50.814;8.530;2023-02-12T03:11:11;5.60;99.90
30174;DHT22;16985;50.814;8.530;2023-02-12T03:13:51;5.60;99.90
30174;DHT22;16985;50.814;8.530;2023-02-12T03:16:28;5.60;99.90
30174;DHT22;16985;50.814;8.530;2023-02-12T03:18:58;5.60;99.90
30174;DHT22;16985;50.814;8.530;2023-02-12T03:21:51;5.60;99.90
30174;DHT22;16985;50.814;8.530;2023-02-12T03:27:46;5.60;99.90
30174;DHT22;16985;50.814;8.530;2023-02-12T03:30:33;5.70;99.90
30174;DHT22;16985;50.814;8.530;2023-02-12T03:33:08;5.60;99.90
30174;DHT22;16985;50.814;8.530;2023-02-12T03:36:07;5.60;99.90
30174;DHT22;16985;50.814;8.530;2023-02-12T03:38:48;5.60;99.90
30174;DHT22;16985;50.814;8.530;2023-02-12T03:49:01;5.60;99.90
30174;DHT22;16985;50.814;8.530;2023-02-12T03:54:08;5.60;99.90
30174;DHT22;16985;50.814;8.530;2023-02-12T03:56:51;5.60;99.90
30174;DHT22;16985;50.814;8.530;2023-02-12T03:59:21;5.60;99.90
30174;DHT22;16985;50.814;8.530;2023-02-12T04:01:48;5.60;99.90
30174;DHT22;16985;50.814;8.530;2023-02-12T04:04:17;5.70;99.90
30174;DHT22;16985;50.814;8.530;2023-02-12T04:06:45;6.20;99.90
30174;DHT22;16985;50.814;8.530;2023-02-12T04:09:13;5.60;99.90
30174;DHT22;16985;50.814;8.530;2023-02-12T04:15:46;5.60;99.90
30174;DHT22;16985;50.814;8.530;2023-02-12T04:18:24;9.30;99.90
30174;DHT22;16985;50.814;8.530;2023-02-12T04:21:20;5.60;99.90
30174;DHT22;16985;50.814;8.530;2023-02-12T04:24:52;5.60;99.90
30174;DHT22;16985;50.814;8.530;2023-02-12T04:26:56;5.60;99.90
30174;DHT22;16985;50.814;8.530;2023-02-12T04:30:04;5.60;99.90
30174;DHT22;16985;50.814;8.530;2023-02-12T04:32:40;5.50;99.90
30174;DHT22;16985;50.814;8.530;2023-02-12T04:38:19;5.60;99.90
30174;DHT22;16985;50.814;8.530;2023-02-12T04:40:48;5.60;99.90
30174;DHT22;16985;50.814;8.530;2023-02-12T04:43:25;5.60;99.90
30174;DHT22;16985;50.814;8.530;2023-02-12T04:45:52;5.60;99.90
30174;DHT22;16985;50.814;8.530;2023-02-12T04:48:18;5.60;99.90
30174;DHT22;16985;50.814;8.530;2023-02-12T04:50:44;5.60;99.90
30174;DHT22;16985;50.814;8.530;2023-02-12T04:53:11;5.60;99.90
30174;DHT22;16985;50.814;8.530;2023-02-12T04:55:37;5.60;99.90
30174;DHT22;16985;50.814;8.530;2023-02-12T04:58:03;5.60;99.90
30174;DHT22;16985;50.814;8.530;2023-02-12T05:00:29;5.60;99.90
30174;DHT22;16985;50.814;8.530;2023-02-12T05:02:55;5.60;99.90
30174;DHT22;16985;50.814;8.530;2023-02-12T05:05:21;5.60;99.90
30174;DHT22;16985;50.814;8.530;2023-02-12T05:07:47;5.60;99.90
30174;DHT22;16985;50.814;8.530;2023-02-12T05:10:13;5.60;99.90
30174;DHT22;16985;50.814;8.530;2023-02-12T05:12:39;5.50;99.90
30174;DHT22;16985;50.814;8.530;2023-02-12T05:15:04;5.50;99.90
30174;DHT22;16985;50.814;8.530;2023-02-12T05:17:30;5.60;99.90
30174;DHT22;16985;50.814;8.530;2023-02-12T05:22:22;5.50;99.90
30174;DHT22;16985;50.814;8.530;2023-02-12T05:34:34;5.50;99.90
30174;DHT22;16985;50.814;8.530;2023-02-12T05:37:00;7.20;99.90
30174;DHT22;16985;50.814;8.530;2023-02-12T05:39:26;5.60;99.90
30174;DHT22;16985;50.814;8.530;2023-02-12T05:41:51;5.50;99.90
30174;DHT22;16985;50.814;8.530;2023-02-12T05:44:17;5.50;99.90
30174;DHT22;16985;50.814;8.530;2023-02-12T05:46:43;5.50;99.90
30174;DHT22;16985;50.814;8.530;2023-02-12T05:49:09;5.50;99.90
30174;DHT22;16985;50.814;8.530;2023-02-12T05:51:36;5.50;99.90
30174;DHT22;16985;50.814;8.530;2023-02-12T05:54:03;5.50;99.90
30174;DHT22;16985;50.814;8.530;2023-02-12T05:56:32;5.50;99.90
30174;DHT22;16985;50.814;8.530;2023-02-12T05:59:02;5.40;99.90
30174;DHT22;16985;50.814;8.530;2023-02-12T06:01:35;2.90;99.90
30174;DHT22;16985;50.814;8.530;2023-02-12T06:04:05;5.40;99.90
30174;DHT22;16985;50.814;8.530;2023-02-12T06:06:33;5.40;99.90
30174;DHT22;16985;50.814;8.530;2023-02-12T06:08:59;5.40;99.90
30174;DHT22;16985;50.814;8.530;2023-02-12T06:11:26;5.40;99.90
30174;DHT22;16985;50.814;8.530;2023-02-12T06:13:52;5.40;99.90
30174;DHT22;16985;50.814;8.530;2023-02-12T06:16:21;5.40;99.90
30174;DHT22;16985;50.814;8.530;2023-02-12T06:18:54;5.40;99.90
30174;DHT22;16985;50.814;8.530;2023-02-12T06:21:22;5.40;99.90
30174;DHT22;16985;50.814;8.530;2023-02-12T06:23:49;5.50;99.90
30174;DHT22;16985;50.814;8.530;2023-02-12T06:26:16;5.40;99.90
30174;DHT22;16985;50.814;8.530;2023-02-12T06:28:42;5.40;99.90
30174;DHT22;16985;50.814;8.530;2023-02-12T06:36:15;5.40;99.90
30174;DHT22;16985;50.814;8.530;2023-02-12T06:38:41;5.40;99.90
30174;DHT22;16985;50.814;8.530;2023-02-12T06:41:07;5.40;99.90
30174;DHT22;16985;50.814;8.530;2023-02-12T06:46:00;5.40;99.90
30174;DHT22;16985;50.814;8.530;2023-02-12T06:48:27;5.40;99.90
30174;DHT22;16985;50.814;8.530;2023-02-12T06:50:53;5.30;99.90
30174;DHT22;16985;50.814;8.530;2023-02-12T06:53:18;5.30;99.90
30174;DHT22;16985;50.814;8.530;2023-02-12T06:55:44;5.40;99.90
30174;DHT22;16985;50.814;8.530;2023-02-12T06:58:10;5.50;99.90
30174;DHT22;16985;50.814;8.530;2023-02-12T07:00:36;5.30;99.90
30174;DHT22;16985;50.814;8.530;2023-02-12T07:03:01;5.40;99.90
30174;DHT22;16985;50.814;8.530;2023-02-12T07:05:27;5.30;99.90
30174;DHT22;16985;50.814;8.530;2023-02-12T07:07:53;5.30;99.90
30174;DHT22;16985;50.814;8.530;2023-02-12T07:10:19;8.00;99.90
30174;DHT22;16985;50.814;8.530;2023-02-12T07:12:45;5.30;99.90
30174;DHT22;16985;50.814;8.530;2023-02-12T07:15:11;5.30;99.90
30174;DHT22;16985;50.814;8.530;2023-02-12T07:17:37;5.30;99.90
30174;DHT22;16985;50.814;8.530;2023-02-12T07:20:04;5.40;99.90
30174;DHT22;16985;50.814;8.530;2023-02-12T07:22:30;5.40;99.90
30174;DHT22;16985;50.814;8.530;2023-02-12T07:24:56;5.30;99.90
30174;DHT22;16985;50.814;8.530;2023-02-12T07:27:22;5.40;99.90
30174;DHT22;16985;50.814;8.530;2023-02-12T07:29:48;5.40;99.90
30174;DHT22;16985;50.814;8.530;2023-02-12T07:32:13;5.40;99.90
30174;DHT22;16985;50.814;8.530;2023-02-12T07:34:39;5.40;99.90
30174;DHT22;16985;50.814;8.530;2023-02-12T07:37:05;5.40;99.90
30174;DHT22;16985;50.814;8.530;2023-02-12T07:39:31;5.40;99.90
30174;DHT22;16985;50.814;8.530;2023-02-12T07:41:57;5.40;99.90
30174;DHT22;16985;50.814;8.530;2023-02-12T07:44:23;5.50;99.90
30174;DHT22;16985;50.814;8.530;2023-02-12T07:46:49;5.50;99.90
30174;DHT22;16985;50.814;8.530;2023-02-12T07:49:17;5.50;99.90
30174;DHT22;16985;50.814;8.530;2023-02-12T07:51:45;5.50;99.90
30174;DHT22;16985;50.814;8.530;2023-02-12T07:54:12;5.50;99.90
30174;DHT22;16985;50.814;8.530;2023-02-12T07:56:40;5.50;99.90
30174;DHT22;16985;50.814;8.530;2023-02-12T07:59:11;5.60;99.90
30174;DHT22;16985;50.814;8.530;2023-02-12T08:01:40;5.60;99.90
30174;DHT22;16985;50.814;8.530;2023-02-12T08:04:12;5.60;99.90
30174;DHT22;16985;50.814;8.530;2023-02-12T08:06:41;5.60;99.90
30174;DHT22;16985;50.814;8.530;2023-02-12T08:09:11;5.70;99.90
30174;DHT22;16985;50.814;8.530;2023-02-12T08:11:40;5.70;99.90
30174;DHT22;16985;50.814;8.530;2023-02-12T08:16:38;5.70;99.90
30174;DHT22;16985;50.814;8.530;2023-02-12T08:19:06;5.80;99.90
30174;DHT22;16985;50.814;8.530;2023-02-12T08:21:32;5.80;99.90
30174;DHT22;16985;50.814;8.530;2023-02-12T08:23:58;5.80;99.90
30174;DHT22;16985;50.814;8.530;2023-02-12T08:26:27;5.80;99.90
30174;DHT22;16985;50.814;8.530;2023-02-12T08:28:59;5.90;99.90
30174;DHT22;16985;50.814;8.530;2023-02-12T08:31:34;5.90;99.90
30174;DHT22;16985;50.814;8.530;2023-02-12T08:34:04;5.90;99.90
30174;DHT22;16985;50.814;8.530;2023-02-12T08:36:38;5.90;99.90
30174;DHT22;16985;50.814;8.530;2023-02-12T08:39:07;6.00;99.90
30174;DHT22;16985;50.814;8.530;2023-02-12T08:41:35;6.00;99.90
30174;DHT22;16985;50.814;8.530;2023-02-12T08:44:03;3.10;99.90
30174;DHT22;16985;50.814;8.530;2023-02-12T08:46:32;6.10;99.90
30174;DHT22;16985;50.814;8.530;2023-02-12T08:49:05;6.20;99.90
30174;DHT22;16985;50.814;8.530;2023-02-12T08:51:35;6.20;99.90
30174;DHT22;16985;50.814;8.530;2023-02-12T08:54:05;6.30;99.90
30174;DHT22;16985;50.814;8.530;2023-02-12T08:56:33;6.30;99.90
30174;DHT22;16985;50.814;8.530;2023-02-12T08:59:01;6.30;99.90
30174;DHT22;16985;50.814;8.530;2023-02-12T09:01:30;6.30;99.90
30174;DHT22;16985;50.814;8.530;2023-02-12T09:03:58;6.40;99.90
30174;DHT22;16985;50.814;8.530;2023-02-12T09:06:25;6.40;99.90
30174;DHT22;16985;50.814;8.530;2023-02-12T09:08:52;6.50;99.90
30174;DHT22;16985;50.814;8.530;2023-02-12T09:11:25;6.50;99.90
30174;DHT22;16985;50.814;8.530;2023-02-12T09:14:00;6.70;99.90
30174;DHT22;16985;50.814;8.530;2023-02-12T09:16:28;6.60;99.90
30174;DHT22;16985;50.814;8.530;2023-02-12T09:18:54;7.80;99.90
30174;DHT22;16985;50.814;8.530;2023-02-12T09:21:21;6.70;99.90
30174;DHT22;16985;50.814;8.530;2023-02-12T09:26:15;6.80;99.90
30174;DHT22;16985;50.814;8.530;2023-02-12T09:28:45;6.90;99.90
30174;DHT22;16985;50.814;8.530;2023-02-12T09:31:14;7.00;99.90
30174;DHT22;16985;50.814;8.530;2023-02-12T09:33:42;7.10;99.90
30174;DHT22;16985;50.814;8.530;2023-02-12T09:36:11;7.10;99.90
30174;DHT22;16985;50.814;8.530;2023-02-12T09:38:41;7.20;99.90
30174;DHT22;16985;50.814;8.530;2023-02-12T09:46:52;7.40;99.90
30174;DHT22;16985;50.814;8.530;2023-02-12T09:52:38;7.30;99.90
30174;DHT22;16985;50.814;8.530;2023-02-12T09:55:04;7.60;99.90
30174;DHT22;16985;50.814;8.530;2023-02-12T09:57:35;7.70;99.90
30174;DHT22;16985;50.814;8.530;2023-02-12T10:00:06;7.70;99.90
30174;DHT22;16985;50.814;8.530;2023-02-12T10:02:35;7.80;99.90
30174;DHT22;16985;50.814;8.530;2023-02-12T10:05:03;7.90;99.90
30174;DHT22;16985;50.814;8.530;2023-02-12T10:13:29;8.30;99.90
30174;DHT22;16985;50.814;8.530;2023-02-12T10:27:16;7.00;99.90
30174;DHT22;16985;50.814;8.530;2023-02-12T10:29:46;8.80;99.90
30174;DHT22;16985;50.814;8.530;2023-02-12T10:32:24;8.80;99.90
30174;DHT22;16985;50.814;8.530;2023-02-12T10:34:53;8.70;99.90
30174;DHT22;16985;50.814;8.530;2023-02-12T10:40:04;8.90;99.90
30174;DHT22;16985;50.814;8.530;2023-02-12T10:42:42;8.90;99.90
30174;DHT22;16985;50.814;8.530;2023-02-12T10:45:17;9.00;99.90
30174;DHT22;16985;50.814;8.530;2023-02-12T10:47:52;9.30;99.90
30174;DHT22;16985;50.814;8.530;2023-02-12T10:50:51;9.10;99.90
30174;DHT22;16985;50.814;8.530;2023-02-12T10:53:25;9.10;99.90
30174;DHT22;16985;50.814;8.530;2023-02-12T10:56:24;9.20;99.90
30174;DHT22;16985;50.814;8.530;2023-02-12T11:07:07;9.30;99.90
30174;DHT22;16985;50.814;8.530;2023-02-12T11:09:38;9.40;99.90
30174;DHT22;16985;50.814;8.530;2023-02-12T11:12:31;9.40;99.90
30174;DHT22;16985;50.814;8.530;2023-02-12T11:15:16;9.40;99.90
30174;DHT22;16985;50.814;8.530;2023-02-12T11:17:53;9.90;99.90
30174;DHT22;16985;50.814;8.530;2023-02-12T11:20:23;9.40;99.90
30174;DHT22;16985;50.814;8.530;2023-02-12T11:23:05;9.70;99.90
30174;DHT22;16985;50.814;8.530;2023-02-12T11:25:36;9.50;99.90
30174;DHT22;16985;50.814;8.530;2023-02-12T11:28:16;9.40;99.90
30174;DHT22;16985;50.814;8.530;2023-02-12T11:38:56;11.50;99.90
30174;DHT22;16985;50.814;8.530;2023-02-12T11:41:35;9.40;99.90
30174;DHT22;16985;50.814;8.530;2023-02-12T11:44:12;9.30;99.90
30174;DHT22;16985;50.814;8.530;2023-02-12T11:46:54;9.40;99.90
30174;DHT22;16985;50.814;8.530;2023-02-12T11:49:27;9.50;99.90
30174;DHT22;16985;50.814;8.530;2023-02-12T11:51:56;9.40;99.90
30174;DHT22;16985;50.814;8.530;2023-02-12T11:54:27;9.40;99.90
30174;DHT22;16985;50.814;8.530;2023-02-12T11:57:03;9.40;99.90
30174;DHT22;16985;50.814;8.530;2023-02-12T11:59:33;10.20;99.90
30174;DHT22;16985;50.814;8.530;2023-02-12T12:02:23;9.40;99.90
30174;DHT22;16985;50.814;8.530;2023-02-12T12:04:54;9.40;99.90
30174;DHT22;16985;50.814;8.530;2023-02-12T12:07:29;9.30;99.90
30174;DHT22;16985;50.814;8.530;2023-02-12T12:10:06;9.30;99.90
30174;DHT22;16985;50.814;8.530;2023-02-12T12:12:58;9.30;99.90
30174;DHT22;16985;50.814;8.530;2023-02-12T12:15:41;9.30;99.90
30174;DHT22;16985;50.814;8.530;2023-02-12T12:18:43;9.30;99.90
30174;DHT22;16985;50.814;8.530;2023-02-12T12:21:46;9.30;99.90
30174;DHT22;16985;50.814;8.530;2023-02-12T12:33:43;9.20;99.90
30174;DHT22;16985;50.814;8.530;2023-02-12T12:39:16;9.20;99.90
30174;DHT22;16985;50.814;8.530;2023-02-12T12:42:17;9.20;99.90
30174;DHT22;16985;50.814;8.530;2023-02-12T12:53:58;9.20;99.90
30174;DHT22;16985;50.814;8.530;2023-02-12T12:59:50;9.10;99.90
30174;DHT22;16985;50.814;8.530;2023-02-12T13:06:23;8.90;99.90
30174;DHT22;16985;50.814;8.530;2023-02-12T13:15:14;9.00;99.90
30174;DHT22;16985;50.814;8.530;2023-02-12T13:21:25;9.00;99.90
30174;DHT22;16985;50.814;8.530;2023-02-12T13:27:01;8.90;99.90
30174;DHT22;16985;50.814;8.530;2023-02-12T13:29:40;8.90;99.90
30174;DHT22;16985;50.814;8.530;2023-02-12T13:32:19;8.90;99.90
30174;DHT22;16985;50.814;8.530;2023-02-12T13:34:55;8.80;99.90
30174;DHT22;16985;50.814;8.530;2023-02-12T13:40:21;8.70;99.90
30174;DHT22;16985;50.814;8.530;2023-02-12T13:45:49;8.70;99.90
30174;DHT22;16985;50.814;8.530;2023-02-12T13:48:34;8.80;99.90
30174;DHT22;16985;50.814;8.530;2023-02-12T13:56:54;8.70;99.90
30174;DHT22;16985;50.814;8.530;2023-02-12T14:02:09;8.70;99.90
30174;DHT22;16985;50.814;8.530;2023-02-12T14:07:43;8.60;99.90
30174;DHT22;16985;50.814;8.530;2023-02-12T14:10:43;8.60;99.90
30174;DHT22;16985;50.814;8.530;2023-02-12T14:13:30;8.50;99.90
30174;DHT22;16985;50.814;8.530;2023-02-12T14:16:19;8.50;99.90
30174;DHT22;16985;50.814;8.530;2023-02-12T14:19:36;8.50;99.90
30174;DHT22;16985;50.814;8.530;2023-02-12T14:22:11;8.60;99.90
30174;DHT22;16985;50.814;8.530;2023-02-12T14:24:58;8.60;99.90
30174;DHT22;16985;50.814;8.530;2023-02-12T14:27:35;8.50;99.90
30174;DHT22;16985;50.814;8.530;2023-02-12T14:33:21;8.30;99.90
30174;DHT22;16985;50.814;8.530;2023-02-12T14:41:52;8.40;99.90
30174;DHT22;16985;50.814;8.530;2023-02-12T14:44:45;8.40;99.90
30174;DHT22;16985;50.814;8.530;2023-02-12T14:52:29;8.40;99.90
30174;DHT22;16985;50.814;8.530;2023-02-12T14:55:12;8.50;99.90
30174;DHT22;16985;50.814;8.530;2023-02-12T14:57:44;8.30;99.90
30174;DHT22;16985;50.814;8.530;2023-02-12T15:02:39;8.40;99.90
30174;DHT22;16985;50.814;8.530;2023-02-12T15:05:10;8.40;99.90
30174;DHT22;16985;50.814;8.530;2023-02-12T15:07:49;8.30;99.90
30174;DHT22;16985;50.814;8.530;2023-02-12T15:10:22;8.30;99.90
30174;DHT22;16985;50.814;8.530;2023-02-12T15:13:01;8.20;99.90
30174;DHT22;16985;50.814;8.530;2023-02-12T15:15:54;8.30;99.90
30174;DHT22;16985;50.814;8.530;2023-02-12T15:21:12;8.30;99.90
30174;DHT22;16985;50.814;8.530;2023-02-12T15:23:42;8.30;99.90
30174;DHT22;16985;50.814;8.530;2023-02-12T15:26:17;8.30;99.90
30174;DHT22;16985;50.814;8.530;2023-02-12T15:28:46;8.40;99.90
30174;DHT22;16985;50.814;8.530;2023-02-12T15:31:20;8.30;99.90
30174;DHT22;16985;50.814;8.530;2023-02-12T15:33:51;8.30;99.90
30174;DHT22;16985;50.814;8.530;2023-02-12T15:36:20;7.90;99.90
30174;DHT22;16985;50.814;8.530;2023-02-12T15:38:54;8.40;99.90
30174;DHT22;16985;50.814;8.530;2023-02-12T15:41:37;8.30;99.90
30174;DHT22;16985;50.814;8.530;2023-02-12T15:46:58;8.40;99.90
30174;DHT22;16985;50.814;8.530;2023-02-12T15:49:32;8.30;99.90
30174;DHT22;16985;50.814;8.530;2023-02-12T15:52:07;8.40;99.90
30174;DHT22;16985;50.814;8.530;2023-02-12T15:54:47;8.30;99.90
30174;DHT22;16985;50.814;8.530;2023-02-12T15:57:19;8.30;99.90
30174;DHT22;16985;50.814;8.530;2023-02-12T15:59:52;8.10;99.90
30174;DHT22;16985;50.814;8.530;2023-02-12T16:02:30;8.20;99.90
30174;DHT22;16985;50.814;8.530;2023-02-12T16:04:59;8.20;99.90
30174;DHT22;16985;50.814;8.530;2023-02-12T16:07:30;8.20;99.90
30174;DHT22;16985;50.814;8.530;2023-02-12T16:10:00;8.30;99.90
30174;DHT22;16985;50.814;8.530;2023-02-12T16:12:29;8.20;99.90
30174;DHT22;16985;50.814;8.530;2023-02-12T16:14:58;8.20;99.90
30174;DHT22;16985;50.814;8.530;2023-02-12T16:19:57;8.20;99.90
30174;DHT22;16985;50.814;8.530;2023-02-12T16:22:36;8.20;99.90
30174;DHT22;16985;50.814;8.530;2023-02-12T16:25:13;8.20;99.90
30174;DHT22;16985;50.814;8.530;2023-02-12T16:27:48;8.20;99.90
30174;DHT22;16985;50.814;8.530;2023-02-12T16:30:32;8.10;99.90
30174;DHT22;16985;50.814;8.530;2023-02-12T16:33:05;8.10;99.90
30174;DHT22;16985;50.814;8.530;2023-02-12T16:36:01;8.20;99.90
30174;DHT22;16985;50.814;8.530;2023-02-12T16:38:43;8.00;99.90
30174;DHT22;16985;50.814;8.530;2023-02-12T16:43:48;8.00;99.90
30174;DHT22;16985;50.814;8.530;2023-02-12T16:46:17;6.30;99.90
30174;DHT22;16985;50.814;8.530;2023-02-12T16:48:46;8.00;99.90
30174;DHT22;16985;50.814;8.530;2023-02-12T16:51:29;8.00;99.90
30174;DHT22;16985;50.814;8.530;2023-02-12T16:54:01;8.10;99.90
30174;DHT22;16985;50.814;8.530;2023-02-12T16:56:31;8.00;99.90
30174;DHT22;16985;50.814;8.530;2023-02-12T16:59:00;8.00;99.90
30174;DHT22;16985;50.814;8.530;2023-02-12T17:03:58;7.90;99.90
30174;DHT22;16985;50.814;8.530;2023-02-12T17:06:29;8.00;99.90
30174;DHT22;16985;50.814;8.530;2023-02-12T17:11:23;8.00;99.90
30174;DHT22;16985;50.814;8.530;2023-02-12T17:13:51;7.90;99.90
30174;DHT22;16985;50.814;8.530;2023-02-12T17:16:18;8.20;99.90
30174;DHT22;16985;50.814;8.530;2023-02-12T17:28:41;7.80;99.90
30174;DHT22;16985;50.814;8.530;2023-02-12T17:31:10;8.30;99.90
30174;DHT22;16985;50.814;8.530;2023-02-12T17:40:55;7.70;99.90
30174;DHT22;16985;50.814;8.530;2023-02-12T17:45:48;7.70;99.90
30174;DHT22;16985;50.814;8.530;2023-02-12T17:48:15;7.70;99.90
30174;DHT22;16985;50.814;8.530;2023-02-12T17:53:08;7.70;99.90
30174;DHT22;16985;50.814;8.530;2023-02-12T17:55:39;7.70;99.90
30174;DHT22;16985;50.814;8.530;2023-02-12T17:58:06;7.70;99.90
30174;DHT22;16985;50.814;8.530;2023-02-12T18:10:16;7.60;99.90
30174;DHT22;16985;50.814;8.530;2023-02-12T18:29:48;7.50;99.90
30174;DHT22;16985;50.814;8.530;2023-02-12T18:34:44;7.40;99.90
30174;DHT22;16985;50.814;8.530;2023-02-12T18:37:11;7.40;99.90
30174;DHT22;16985;50.814;8.530;2023-02-12T18:51:52;7.40;99.90
30174;DHT22;16985;50.814;8.530;2023-02-12T18:56:45;7.40;99.90
30174;DHT22;16985;50.814;8.530;2023-02-12T19:01:42;7.50;99.90
30174;DHT22;16985;50.814;8.530;2023-02-12T19:04:10;7.30;99.90
30174;DHT22;16985;50.814;8.530;2023-02-12T19:06:45;7.30;99.90
30174;DHT22;16985;50.814;8.530;2023-02-12T19:09:14;7.20;99.90
30174;DHT22;16985;50.814;8.530;2023-02-12T19:11:45;7.30;99.90
30174;DHT22;16985;50.814;8.530;2023-02-12T19:14:13;7.10;99.90
30174;DHT22;16985;50.814;8.530;2023-02-12T19:16:39;7.30;99.90
30174;DHT22;16985;50.814;8.530;2023-02-12T19:24:04;7.20;99.90
30174;DHT22;16985;50.814;8.530;2023-02-12T19:26:32;7.00;99.90
30174;DHT22;16985;50.814;8.530;2023-02-12T19:31:34;7.20;99.90
30174;DHT22;16985;50.814;8.530;2023-02-12T19:34:04;7.20;99.90
30174;DHT22;16985;50.814;8.530;2023-02-12T19:36:33;7.20;99.90
30174;DHT22;16985;50.814;8.530;2023-02-12T19:39:04;7.20;99.90
30174;DHT22;16985;50.814;8.530;2023-02-12T19:41:33;7.20;99.90
30174;DHT22;16985;50.814;8.530;2023-02-12T19:49:01;7.10;99.90
30174;DHT22;16985;50.814;8.530;2023-02-12T19:51:28;7.20;99.90
30174;DHT22;16985;50.814;8.530;2023-02-12T19:54:01;7.10;99.90
30174;DHT22;16985;50.814;8.530;2023-02-12T19:56:29;8.70;99.90
30174;DHT22;16985;50.814;8.530;2023-02-12T19:58:56;7.00;99.90
30174;DHT22;16985;50.814;8.530;2023-02-12T20:03:49;7.60;99.90
30174;DHT22;16985;50.814;8.530;2023-02-12T20:06:18;7.00;99.90
30174;DHT22;16985;50.814;8.530;2023-02-12T20:11:21;7.00;99.90
30174;DHT22;16985;50.814;8.530;2023-02-12T20:13:54;7.00;99.90
30174;DHT22;16985;50.814;8.530;2023-02-12T20:16:23;6.90;99.90
30174;DHT22;16985;50.814;8.530;2023-02-12T20:21:22;10.80;99.90
30174;DHT22;16985;50.814;8.530;2023-02-12T20:23:50;7.70;99.90
30174;DHT22;16985;50.814;8.530;2023-02-12T20:26:19;6.80;99.90
30174;DHT22;16985;50.814;8.530;2023-02-12T20:28:48;6.90;99.90
30174;DHT22;16985;50.814;8.530;2023-02-12T20:31:17;7.00;99.90
30174;DHT22;16985;50.814;8.530;2023-02-12T20:33:51;6.80;99.90
30174;DHT22;16985;50.814;8.530;2023-02-12T20:36:23;6.90;99.90
30174;DHT22;16985;50.814;8.530;2023-02-12T20:38:53;6.80;99.90
30174;DHT22;16985;50.814;8.530;2023-02-12T20:41:24;6.80;99.90
30174;DHT22;16985;50.814;8.530;2023-02-12T20:46:19;6.90;99.90
30174;DHT22;16985;50.814;8.530;2023-02-12T20:48:47;6.90;99.90
30174;DHT22;16985;50.814;8.530;2023-02-12T20:51:16;6.50;99.90
30174;DHT22;16985;50.814;8.530;2023-02-12T20:53:44;6.80;99.90
30174;DHT22;16985;50.814;8.530;2023-02-12T20:56:12;7.00;99.90
30174;DHT22;16985;50.814;8.530;2023-02-12T21:01:21;6.80;99.90
30174;DHT22;16985;50.814;8.530;2023-02-12T21:03:53;6.80;99.90
30174;DHT22;16985;50.814;8.530;2023-02-12T21:06:23;6.80;99.90
30174;DHT22;16985;50.814;8.530;2023-02-12T21:08:49;6.80;99.90
30174;DHT22;16985;50.814;8.530;2023-02-12T21:11:18;6.70;99.90
30174;DHT22;16985;50.814;8.530;2023-02-12T21:13:48;6.70;99.90
30174;DHT22;16985;50.814;8.530;2023-02-12T21:16:24;6.70;99.90
30174;DHT22;16985;50.814;8.530;2023-02-12T21:18:52;6.70;99.90